createdAt,value
2023-10-21T00:01:40.042Z,23.10
2023-10-21T00:04:07.188Z,23.10
2023-10-21T00:06:35.297Z,23.10
2023-10-21T00:09:02.407Z,23.10
2023-10-21T00:11:29.714Z,23.10
2023-10-21T00:13:58.092Z,23.09
2023-10-21T00:16:25.230Z,23.08
2023-10-21T00:18:52.202Z,23.08
2023-10-21T00:21:19.290Z,23.07
2023-10-21T00:23:46.428Z,23.07
2023-10-21T00:26:13.512Z,23.06
2023-10-21T00:28:41.347Z,23.05
2023-10-21T00:31:08.325Z,23.05
2023-10-21T00:33:36.117Z,23.04
2023-10-21T00:36:04.699Z,23.04
2023-10-21T00:38:31.716Z,23.03
2023-10-21T00:40:58.706Z,23.02
2023-10-21T00:43:43.011Z,23.01
2023-10-21T00:46:16.749Z,23.00
2023-10-21T00:48:44.242Z,23.01
2023-10-21T00:51:11.626Z,22.98
2023-10-21T00:53:38.903Z,22.86
2023-10-21T00:56:09.207Z,22.76
2023-10-21T00:58:36.706Z,22.72
2023-10-21T01:01:09.104Z,22.71
2023-10-21T01:03:36.982Z,22.69
2023-10-21T01:06:04.611Z,22.69
2023-10-21T01:08:42.953Z,22.68
2023-10-21T01:11:12.391Z,22.68
2023-10-21T01:13:39.841Z,22.68
2023-10-21T01:16:06.685Z,22.69
2023-10-21T01:18:35.016Z,22.69
2023-10-21T01:21:03.563Z,22.70
2023-10-21T01:23:31.403Z,22.77
2023-10-21T01:25:58.461Z,22.85
2023-10-21T01:28:25.924Z,22.84
2023-10-21T01:30:53.167Z,22.80
2023-10-21T01:33:20.255Z,22.89
2023-10-21T01:35:47.797Z,22.75
2023-10-21T01:38:15.947Z,22.74
2023-10-21T01:40:43.205Z,22.75
2023-10-21T01:43:10.244Z,22.75
2023-10-21T01:45:38.020Z,22.76
2023-10-21T01:48:06.239Z,22.76
2023-10-21T01:50:33.138Z,22.76
2023-10-21T01:53:00.063Z,22.76
2023-10-21T01:55:27.026Z,22.75
2023-10-21T01:57:53.960Z,22.75
2023-10-21T02:00:21.234Z,22.74
2023-10-21T02:02:51.951Z,22.73
2023-10-21T02:05:20.015Z,22.72
2023-10-21T02:07:47.482Z,22.71
2023-10-21T02:10:14.409Z,22.70
2023-10-21T02:12:41.581Z,22.67
2023-10-21T02:15:18.514Z,22.65
2023-10-21T02:17:45.654Z,22.68
2023-10-21T02:20:13.807Z,22.65
2023-10-21T02:22:40.827Z,22.64
2023-10-21T02:25:13.843Z,22.63
2023-10-21T02:27:42.222Z,22.62
2023-10-21T02:30:11.687Z,22.58
2023-10-21T02:32:38.708Z,22.47
2023-10-21T02:35:06.601Z,22.45
2023-10-21T02:37:33.528Z,22.44
2023-10-21T02:40:00.591Z,22.45
2023-10-21T02:42:27.467Z,22.48
2023-10-21T02:44:54.315Z,22.45
2023-10-21T02:47:21.407Z,22.44
2023-10-21T02:49:48.658Z,22.44
2023-10-21T02:52:15.726Z,22.44
2023-10-21T02:54:42.661Z,22.44
2023-10-21T02:57:09.840Z,22.49
2023-10-21T02:59:36.910Z,22.57
2023-10-21T03:02:04.138Z,22.58
2023-10-21T03:04:31.274Z,22.60
2023-10-21T03:06:58.301Z,22.55
2023-10-21T03:09:26.730Z,22.50
2023-10-21T03:11:54.422Z,22.56
2023-10-21T03:14:21.805Z,22.76
2023-10-21T03:16:49.579Z,22.77
2023-10-21T03:19:16.708Z,22.64
2023-10-21T03:21:45.902Z,22.62
2023-10-21T03:24:13.170Z,22.63
2023-10-21T03:26:40.223Z,22.69
2023-10-21T03:29:09.877Z,22.72
2023-10-21T03:31:38.536Z,22.73
2023-10-21T03:34:05.654Z,22.74
2023-10-21T03:36:32.681Z,22.74
2023-10-21T03:38:59.647Z,22.79
2023-10-21T03:41:26.886Z,22.86
2023-10-21T03:43:53.840Z,22.86
2023-10-21T03:46:22.372Z,22.80
2023-10-21T03:48:49.509Z,22.81
2023-10-21T03:51:16.718Z,22.76
2023-10-21T03:53:47.059Z,22.77
2023-10-21T03:56:13.947Z,22.77
2023-10-21T03:58:41.526Z,22.76
2023-10-21T04:01:08.710Z,22.76
2023-10-21T04:03:36.293Z,22.74
2023-10-21T04:06:03.300Z,22.73
2023-10-21T04:08:30.749Z,22.71
2023-10-21T04:10:57.688Z,22.70
2023-10-21T04:13:25.697Z,22.73
2023-10-21T04:15:52.776Z,22.76
2023-10-21T04:18:19.950Z,22.65
2023-10-21T04:20:47.326Z,22.63
2023-10-21T04:23:14.466Z,22.62
2023-10-21T04:25:41.414Z,22.61
2023-10-21T04:28:08.399Z,22.59
2023-10-21T04:30:35.919Z,22.65
2023-10-21T04:33:03.144Z,22.72
2023-10-21T04:35:30.210Z,22.72
2023-10-21T04:37:58.579Z,22.72
2023-10-21T04:40:25.647Z,22.73
2023-10-21T04:42:52.589Z,22.72
2023-10-21T04:45:19.544Z,22.63
2023-10-21T04:47:46.490Z,22.56
2023-10-21T04:50:13.421Z,22.57
2023-10-21T04:52:40.874Z,22.50
2023-10-21T04:55:08.418Z,22.51
2023-10-21T04:57:35.380Z,22.56
2023-10-21T05:00:04.253Z,22.57
2023-10-21T05:02:31.436Z,22.57
2023-10-21T05:04:58.579Z,22.58
2023-10-21T05:07:25.501Z,22.59
2023-10-21T05:09:52.467Z,22.59
2023-10-21T05:12:20.332Z,22.57
2023-10-21T05:14:47.236Z,22.53
2023-10-21T05:17:14.398Z,22.53
2023-10-21T05:19:41.460Z,22.61
2023-10-21T05:22:08.496Z,22.74
2023-10-21T05:24:35.886Z,22.77
2023-10-21T05:27:03.650Z,22.78
2023-10-21T05:29:31.179Z,22.79
2023-10-21T05:31:58.525Z,22.80
2023-10-21T05:34:25.657Z,22.76
2023-10-21T05:36:52.736Z,22.76
2023-10-21T05:39:19.929Z,22.82
2023-10-21T05:41:47.227Z,22.82
2023-10-21T05:44:14.196Z,22.61
2023-10-21T05:46:41.200Z,22.57
2023-10-21T05:49:08.300Z,22.57
2023-10-21T05:51:35.231Z,22.61
2023-10-21T05:54:02.376Z,22.65
2023-10-21T05:56:29.359Z,22.71
2023-10-21T05:58:56.149Z,22.74
2023-10-21T06:01:23.191Z,22.77
2023-10-21T06:03:50.312Z,22.80
2023-10-21T06:06:18.070Z,22.83
2023-10-21T06:08:45.583Z,22.88
2023-10-21T06:11:13.127Z,22.93
2023-10-21T06:13:40.283Z,22.97
2023-10-21T06:16:07.643Z,23.02
2023-10-21T06:18:34.747Z,23.06
2023-10-21T06:21:01.655Z,23.10
2023-10-21T06:23:28.897Z,23.14
2023-10-21T06:25:56.181Z,23.17
2023-10-21T06:28:24.293Z,23.19
2023-10-21T06:30:51.461Z,23.27
2023-10-21T06:33:18.778Z,23.30
2023-10-21T06:35:45.974Z,23.35
2023-10-21T06:38:12.902Z,23.40
2023-10-21T06:40:52.494Z,23.39
2023-10-21T06:43:25.926Z,23.45
2023-10-21T06:45:53.181Z,23.52
2023-10-21T06:48:20.197Z,23.57
2023-10-21T06:50:47.064Z,23.60
2023-10-21T06:53:15.038Z,23.64
2023-10-21T06:55:45.378Z,23.67
2023-10-21T06:58:12.618Z,23.70
2023-10-21T07:00:39.557Z,23.73
2023-10-21T07:03:06.946Z,23.77
2023-10-21T07:05:34.808Z,23.82
2023-10-21T07:08:02.560Z,23.88
2023-10-21T07:10:31.550Z,23.93
2023-10-21T07:12:58.810Z,23.99
2023-10-21T07:15:28.695Z,24.04
2023-10-21T07:17:57.447Z,24.03
2023-10-21T07:20:26.653Z,23.96
2023-10-21T07:22:54.274Z,24.13
2023-10-21T07:25:21.302Z,24.19
2023-10-21T07:27:48.567Z,24.19
2023-10-21T07:30:16.027Z,24.22
2023-10-21T07:32:43.607Z,24.27
2023-10-21T07:35:10.662Z,24.31
2023-10-21T07:37:38.189Z,24.20
2023-10-21T07:40:07.518Z,24.23
2023-10-21T07:42:34.445Z,24.22
2023-10-21T07:45:01.623Z,24.25
2023-10-21T07:47:28.737Z,24.29
2023-10-21T07:49:56.392Z,24.37
2023-10-21T07:52:23.689Z,24.42
2023-10-21T07:54:50.768Z,24.46
2023-10-21T07:57:18.038Z,24.49
2023-10-21T07:59:45.598Z,24.64
2023-10-21T08:02:13.751Z,24.81
2023-10-21T08:04:41.186Z,24.64
2023-10-21T08:07:08.596Z,24.61
2023-10-21T08:09:37.226Z,24.63
2023-10-21T08:12:04.297Z,24.65
2023-10-21T08:14:32.998Z,24.66
2023-10-21T08:17:01.279Z,24.67
2023-10-21T08:19:29.986Z,24.65
2023-10-21T08:21:58.241Z,24.62
2023-10-21T08:24:25.266Z,24.64
2023-10-21T08:26:52.274Z,24.68
2023-10-21T08:29:20.744Z,24.75
2023-10-21T08:31:48.051Z,24.78
2023-10-21T08:34:15.301Z,24.80
2023-10-21T08:36:42.346Z,24.81
2023-10-21T08:39:10.565Z,24.84
2023-10-21T08:41:40.544Z,24.86
2023-10-21T08:44:08.421Z,24.89
2023-10-21T08:46:38.529Z,24.92
2023-10-21T08:49:05.949Z,24.95
2023-10-21T08:51:34.011Z,24.98
2023-10-21T08:54:03.922Z,25.00
2023-10-21T08:56:31.724Z,25.04
2023-10-21T08:58:58.780Z,25.06
2023-10-21T09:01:25.774Z,25.05
2023-10-21T09:03:53.055Z,25.04
2023-10-21T09:06:20.793Z,25.03
2023-10-21T09:08:48.740Z,25.06
2023-10-21T09:11:21.489Z,25.15
2023-10-21T09:13:49.769Z,25.23
2023-10-21T09:16:21.290Z,25.27
2023-10-21T09:18:57.981Z,25.31
2023-10-21T09:21:35.014Z,25.38
2023-10-21T09:24:03.574Z,25.44
2023-10-21T09:26:35.001Z,25.50
2023-10-21T09:29:06.774Z,25.56
2023-10-21T09:31:53.919Z,25.61
2023-10-21T09:34:30.347Z,25.66
2023-10-21T09:37:02.694Z,25.68
2023-10-21T09:39:41.216Z,25.69
2023-10-21T09:42:09.452Z,25.71
2023-10-21T09:44:36.993Z,25.71
2023-10-21T09:47:08.072Z,25.70
2023-10-21T09:49:39.768Z,25.69
2023-10-21T09:52:16.551Z,25.69
2023-10-21T09:54:45.499Z,25.67
2023-10-21T09:57:13.293Z,25.67
2023-10-21T09:59:40.590Z,25.67
2023-10-21T10:02:07.807Z,25.69
2023-10-21T10:04:36.495Z,25.72
2023-10-21T10:07:07.108Z,25.72
2023-10-21T10:09:40.600Z,25.74
2023-10-21T10:12:17.037Z,25.77
2023-10-21T10:14:44.227Z,25.80
2023-10-21T10:17:14.318Z,25.82
2023-10-21T10:19:44.358Z,25.86
2023-10-21T10:22:21.814Z,25.90
2023-10-21T10:24:56.529Z,25.94
2023-10-21T10:27:37.862Z,25.93
2023-10-21T10:30:20.346Z,25.96
2023-10-21T10:32:50.857Z,25.99
2023-10-21T10:35:31.158Z,26.04
2023-10-21T10:38:02.404Z,26.08
2023-10-21T10:40:36.937Z,26.13
2023-10-21T10:43:06.664Z,26.18
2023-10-21T10:45:34.062Z,26.22
2023-10-21T10:48:02.913Z,26.26
2023-10-21T10:50:37.516Z,26.31
2023-10-21T10:53:14.604Z,26.34
2023-10-21T10:55:43.825Z,26.36
2023-10-21T10:58:12.437Z,26.37
2023-10-21T11:00:42.288Z,26.39
2023-10-21T11:03:09.651Z,26.42
2023-10-21T11:05:41.204Z,26.40
2023-10-21T11:08:09.884Z,26.41
2023-10-21T11:10:38.158Z,26.42
2023-10-21T11:13:05.912Z,26.43
2023-10-21T11:15:33.545Z,26.45
2023-10-21T11:18:05.479Z,26.48
2023-10-21T11:20:32.889Z,26.51
2023-10-21T11:23:10.580Z,26.53
2023-10-21T11:25:37.535Z,26.55
2023-10-21T11:28:06.261Z,26.56
2023-10-21T11:30:36.239Z,26.57
2023-10-21T11:33:11.230Z,26.60
2023-10-21T11:35:42.319Z,26.64
2023-10-21T11:38:09.521Z,26.65
2023-10-21T11:40:36.934Z,26.68
2023-10-21T11:43:07.103Z,26.69
2023-10-21T11:45:34.209Z,26.72
2023-10-21T11:48:01.759Z,26.72
2023-10-21T11:50:34.621Z,26.69
2023-10-21T11:53:03.638Z,26.69
2023-10-21T11:55:50.013Z,26.70
2023-10-21T11:58:42.991Z,26.71
2023-10-21T12:01:31.679Z,26.72
2023-10-21T12:04:01.489Z,26.74
2023-10-21T12:06:31.570Z,26.78
2023-10-21T12:09:17.572Z,26.79
2023-10-21T12:12:07.589Z,26.79
2023-10-21T12:14:52.972Z,26.81
2023-10-21T12:17:26.275Z,26.76
2023-10-21T12:19:56.024Z,26.74
2023-10-21T12:22:25.928Z,26.77
2023-10-21T12:25:11.865Z,26.76
2023-10-21T12:27:41.826Z,26.74
2023-10-21T12:30:28.565Z,26.73
2023-10-21T12:33:14.842Z,26.72
2023-10-21T12:35:53.761Z,26.72
2023-10-21T12:38:23.997Z,26.71
2023-10-21T12:41:09.673Z,26.72
2023-10-21T12:43:37.161Z,26.72
2023-10-21T12:46:30.404Z,26.72
2023-10-21T12:49:06.938Z,26.72
2023-10-21T12:51:42.141Z,26.73
2023-10-21T12:54:14.690Z,26.72
2023-10-21T12:56:42.650Z,26.72
2023-10-21T12:59:09.790Z,26.72
2023-10-21T13:01:39.122Z,26.71
2023-10-21T13:04:06.622Z,26.70
2023-10-21T13:06:34.277Z,26.67
2023-10-21T13:09:01.620Z,26.63
2023-10-21T13:11:29.118Z,26.61
2023-10-21T13:13:56.081Z,26.64
2023-10-21T13:16:23.890Z,26.60
2023-10-21T13:18:52.050Z,26.59
2023-10-21T13:21:19.628Z,26.58
2023-10-21T13:23:46.950Z,26.57
2023-10-21T13:26:14.058Z,26.52
2023-10-21T13:28:41.412Z,26.51
2023-10-21T13:31:08.997Z,26.48
2023-10-21T13:33:36.264Z,26.51
2023-10-21T13:36:06.809Z,26.53
2023-10-21T13:38:33.798Z,26.52
2023-10-21T13:41:00.766Z,26.51
2023-10-21T13:43:27.730Z,26.48
2023-10-21T13:45:54.688Z,26.42
2023-10-21T13:48:21.793Z,26.44
2023-10-21T13:50:54.157Z,26.37
2023-10-21T13:53:26.788Z,26.34
2023-10-21T13:55:57.299Z,26.32
2023-10-21T13:58:24.211Z,26.28
2023-10-21T14:00:51.219Z,26.25
2023-10-21T14:03:25.890Z,26.22
2023-10-21T14:05:55.573Z,26.17
2023-10-21T14:08:26.434Z,26.13
2023-10-21T14:10:57.061Z,26.09
2023-10-21T14:13:32.897Z,26.04
2023-10-21T14:16:00.079Z,26.00
2023-10-21T14:18:28.984Z,26.00
2023-10-21T14:20:56.125Z,25.98
2023-10-21T14:23:24.372Z,25.92
2023-10-21T14:25:54.254Z,25.88
2023-10-21T14:28:21.959Z,25.82
2023-10-21T14:30:50.534Z,25.78
2023-10-21T14:33:22.106Z,25.74
2023-10-21T14:35:49.655Z,25.69
2023-10-21T14:38:16.808Z,25.65
2023-10-21T14:40:44.457Z,25.59
2023-10-21T14:43:15.164Z,25.54
2023-10-21T14:45:43.796Z,25.49
2023-10-21T14:48:11.372Z,25.44
2023-10-21T14:50:39.714Z,25.40
2023-10-21T14:53:08.978Z,25.36
2023-10-21T14:55:51.828Z,25.31
2023-10-21T14:58:26.054Z,25.26
2023-10-21T15:00:53.797Z,25.21
2023-10-21T15:03:22.117Z,25.18
2023-10-21T15:05:49.774Z,25.14
2023-10-21T15:08:21.508Z,25.09
2023-10-21T15:10:49.164Z,25.06
2023-10-21T15:13:16.137Z,25.03
2023-10-21T15:15:43.743Z,24.99
2023-10-21T15:18:11.095Z,24.96
2023-10-21T15:20:38.217Z,24.93
2023-10-21T15:23:04.953Z,24.90
2023-10-21T15:25:31.899Z,24.89
2023-10-21T15:27:59.330Z,24.86
2023-10-21T15:30:26.502Z,24.84
2023-10-21T15:32:56.900Z,24.83
2023-10-21T15:35:24.497Z,24.81
2023-10-21T15:37:51.481Z,24.80
2023-10-21T15:40:20.084Z,24.79
2023-10-21T15:42:47.159Z,24.77
2023-10-21T15:45:14.764Z,24.76
2023-10-21T15:47:42.196Z,24.74
2023-10-21T15:50:10.749Z,24.73
2023-10-21T15:52:38.010Z,24.71
2023-10-21T15:55:05.784Z,24.70
2023-10-21T15:57:33.694Z,24.68
2023-10-21T16:00:03.411Z,24.67
2023-10-21T16:02:37.802Z,24.65
2023-10-21T16:05:05.334Z,24.63
2023-10-21T16:09:59.682Z,24.56
2023-10-21T16:12:28.537Z,24.55
2023-10-21T16:14:55.692Z,24.54
2023-10-21T16:17:23.329Z,24.51
2023-10-21T16:19:50.293Z,24.50
2023-10-21T16:22:17.328Z,24.49
2023-10-21T16:24:44.417Z,24.49
2023-10-21T16:27:11.489Z,24.47
2023-10-21T16:29:38.902Z,24.46
2023-10-21T16:32:07.410Z,24.45
2023-10-21T16:34:34.368Z,24.44
2023-10-21T16:37:01.548Z,24.42
2023-10-21T16:39:28.720Z,24.41
2023-10-21T16:41:56.060Z,24.40
2023-10-21T16:44:23.167Z,24.39
2023-10-21T16:46:50.162Z,24.38
2023-10-21T16:49:17.082Z,24.36
2023-10-21T16:51:44.505Z,24.35
2023-10-21T16:54:13.514Z,24.33
2023-10-21T16:56:40.472Z,24.33
2023-10-21T16:59:07.823Z,24.31
2023-10-21T17:01:34.918Z,24.30
2023-10-21T17:04:02.008Z,24.30
2023-10-21T17:06:31.619Z,24.31
2023-10-21T17:09:00.408Z,24.29
2023-10-21T17:11:27.330Z,24.29
2023-10-21T17:13:56.849Z,24.29
2023-10-21T17:16:25.846Z,24.29
2023-10-21T17:18:53.139Z,24.29
2023-10-21T17:21:20.077Z,24.29
2023-10-21T17:23:49.590Z,24.29
2023-10-21T17:26:17.940Z,24.29
2023-10-21T17:28:44.977Z,24.29
2023-10-21T17:31:12.286Z,24.29
2023-10-21T17:33:50.012Z,24.28
2023-10-21T17:36:18.508Z,24.28
2023-10-21T17:38:45.517Z,24.30
2023-10-21T17:41:12.326Z,24.39
2023-10-21T17:43:39.749Z,24.43
2023-10-21T17:46:06.722Z,24.46
2023-10-21T17:48:34.027Z,24.47
2023-10-21T17:51:01.223Z,24.49
2023-10-21T17:53:28.556Z,24.50
2023-10-21T17:55:55.718Z,24.51
2023-10-21T17:58:22.753Z,24.51
2023-10-21T18:00:49.840Z,24.53
2023-10-21T18:03:17.285Z,24.48
2023-10-21T18:05:46.462Z,24.40
2023-10-21T18:08:13.808Z,24.40
2023-10-21T18:10:40.745Z,24.40
2023-10-21T18:13:07.627Z,24.41
2023-10-21T18:15:34.568Z,24.41
2023-10-21T18:18:03.199Z,24.41
2023-10-21T18:20:30.369Z,24.39
2023-10-21T18:22:59.154Z,24.39
2023-10-21T18:25:27.546Z,24.38
2023-10-21T18:27:55.677Z,24.38
2023-10-21T18:30:23.425Z,24.38
2023-10-21T18:32:50.783Z,24.37
2023-10-21T18:35:17.866Z,24.39
2023-10-21T18:37:44.930Z,24.40
2023-10-21T18:40:12.086Z,24.37
2023-10-21T18:42:39.005Z,24.36
2023-10-21T18:45:07.009Z,24.34
2023-10-21T18:47:34.234Z,24.32
2023-10-21T18:50:01.305Z,24.30
2023-10-21T18:52:28.512Z,24.28
2023-10-21T18:54:55.387Z,24.28
2023-10-21T18:57:24.380Z,24.28
2023-10-21T18:59:54.196Z,24.27
2023-10-21T19:02:21.640Z,24.27
2023-10-21T19:04:48.881Z,24.28
2023-10-21T19:07:15.805Z,24.28
2023-10-21T19:09:43.518Z,24.27
2023-10-21T19:12:10.733Z,24.24
2023-10-21T19:14:38.828Z,24.21
2023-10-21T19:17:05.905Z,24.21
2023-10-21T19:19:34.256Z,24.22
2023-10-21T19:22:01.301Z,24.23
2023-10-21T19:24:28.467Z,24.23
2023-10-21T19:26:55.445Z,24.24
2023-10-21T19:29:22.357Z,24.24
2023-10-21T19:31:50.785Z,24.23
2023-10-21T19:34:18.192Z,24.22
2023-10-21T19:36:45.696Z,24.20
2023-10-21T19:39:13.199Z,24.18
2023-10-21T19:41:40.436Z,24.15
2023-10-21T19:44:25.140Z,24.12
2023-10-21T19:47:04.333Z,24.10
2023-10-21T19:49:34.439Z,24.07
2023-10-21T19:52:03.133Z,24.03
2023-10-21T19:54:32.145Z,24.04
2023-10-21T19:56:59.081Z,24.06
2023-10-21T19:59:26.224Z,24.06
2023-10-21T20:01:54.905Z,24.07
2023-10-21T20:04:21.971Z,24.06
2023-10-21T20:06:49.266Z,24.05
2023-10-21T20:09:16.607Z,24.03
2023-10-21T20:11:45.253Z,24.00
2023-10-21T20:14:13.543Z,23.96
2023-10-21T20:16:40.790Z,23.91
2023-10-21T20:19:07.711Z,23.87
2023-10-21T20:21:40.304Z,23.84
2023-10-21T20:24:07.956Z,23.80
2023-10-21T20:26:35.536Z,23.78
2023-10-21T20:29:02.870Z,23.77
2023-10-21T20:31:32.270Z,23.76
2023-10-21T20:34:00.549Z,23.75
2023-10-21T20:36:28.490Z,23.75
2023-10-21T20:38:56.375Z,23.74
2023-10-21T20:41:23.327Z,23.73
2023-10-21T20:43:52.114Z,23.72
2023-10-21T20:46:19.368Z,23.70
2023-10-21T20:48:46.576Z,23.69
2023-10-21T20:51:17.184Z,23.68
2023-10-21T20:53:44.250Z,23.67
2023-10-21T20:56:17.897Z,23.67
2023-10-21T20:58:44.831Z,23.68
2023-10-21T21:01:13.184Z,23.69
2023-10-21T21:03:43.528Z,23.69
2023-10-21T21:06:10.598Z,23.70
2023-10-21T21:08:37.736Z,23.70
2023-10-21T21:11:05.302Z,23.70
2023-10-21T21:13:32.245Z,23.67
2023-10-21T21:15:59.262Z,23.66
2023-10-21T21:18:26.772Z,23.64
2023-10-21T21:20:55.946Z,23.63
2023-10-21T21:23:23.078Z,23.63
2023-10-21T21:25:50.129Z,23.62
2023-10-21T21:28:17.796Z,23.63
2023-10-21T21:30:52.057Z,23.62
2023-10-21T21:33:22.477Z,23.65
2023-10-21T21:35:59.414Z,23.62
2023-10-21T21:38:27.581Z,23.56
2023-10-21T21:40:54.653Z,23.53
2023-10-21T21:43:21.915Z,23.52
2023-10-21T21:45:49.073Z,23.50
2023-10-21T21:48:16.213Z,23.48
2023-10-21T21:50:43.125Z,23.47
2023-10-21T21:53:12.115Z,23.50
2023-10-21T21:55:41.418Z,23.49
2023-10-21T21:58:08.260Z,23.50
2023-10-21T22:00:40.694Z,23.50
2023-10-21T22:03:07.857Z,23.50
2023-10-21T22:05:36.043Z,23.48
2023-10-21T22:08:04.651Z,23.46
2023-10-21T22:10:33.459Z,23.44
2023-10-21T22:13:01.297Z,23.42
2023-10-21T22:15:28.551Z,23.39
2023-10-21T22:17:55.737Z,23.37
2023-10-21T22:20:24.350Z,23.36
2023-10-21T22:22:54.122Z,23.36
2023-10-21T22:25:39.190Z,23.36
2023-10-21T22:28:12.574Z,23.36
2023-10-21T22:30:41.456Z,23.37
2023-10-21T22:33:08.722Z,23.36
2023-10-21T22:35:36.216Z,23.36
2023-10-21T22:38:03.624Z,23.36
2023-10-21T22:40:30.570Z,23.34
2023-10-21T22:42:57.733Z,23.34
2023-10-21T22:45:26.297Z,23.34
2023-10-21T22:47:53.461Z,23.36
2023-10-21T22:50:21.950Z,23.37
2023-10-21T22:52:48.992Z,23.38
2023-10-21T22:55:16.143Z,23.40
2023-10-21T22:57:45.207Z,23.42
2023-10-21T23:00:13.297Z,23.43
2023-10-21T23:02:43.349Z,23.43
2023-10-21T23:05:11.020Z,23.44
2023-10-21T23:07:38.752Z,23.45
2023-10-21T23:10:22.682Z,23.45
2023-10-21T23:12:50.982Z,23.44
2023-10-21T23:15:18.725Z,23.42
2023-10-21T23:17:46.547Z,23.40
2023-10-21T23:20:13.958Z,23.39
2023-10-21T23:22:41.219Z,23.37
2023-10-21T23:25:11.336Z,23.37
2023-10-21T23:27:39.286Z,23.37
2023-10-21T23:30:14.942Z,23.37
2023-10-21T23:32:42.326Z,23.37
2023-10-21T23:35:09.958Z,23.38
2023-10-21T23:37:39.508Z,23.41
2023-10-21T23:40:10.592Z,23.43
2023-10-21T23:42:39.268Z,23.44
2023-10-21T23:45:07.889Z,23.44
2023-10-21T23:47:35.726Z,23.44
2023-10-21T23:50:03.083Z,23.45
2023-10-21T23:52:31.465Z,23.45
2023-10-21T23:54:58.314Z,23.45
2023-10-21T23:57:25.333Z,23.44
2023-10-21T23:59:52.406Z,23.44
